Time;durP1;ratioP1;P1;durP2;ratioP2;P2;SDS_P1;SDS_P2;PMS_P1;PMS_P2;Temp;Humidity;BMP_temperature;BMP_pressure;BME280_temperature;BME280_humidity;BME280_pressure;Samples;Min_cycle;Max_cycle;Signal;HPM_P1;HPM_P2
2021/09/07 00:04:45;;;;;;;20.92;11.43;;;;;;;15.05;63.41;100657.25;10399721;28;20455;-83
2021/09/07 00:09:47;;;;;;;15.18;10.20;;;;;;;15.02;63.33;100652.19;10398979;28;20144;-83
2021/09/07 00:14:49;;;;;;;13.95;11.35;;;;;;;15.00;63.14;100659.34;10400492;28;20917;-83
2021/09/07 00:19:51;;;;;;;15.60;11.30;;;;;;;14.97;63.06;100662.19;10398350;28;20057;-83
2021/09/07 00:24:53;;;;;;;14.18;10.82;;;;;;;14.95;63.68;100662.28;10399730;28;20058;-83
2021/09/07 00:29:55;;;;;;;16.98;12.77;;;;;;;14.91;63.27;100650.25;10399316;28;20057;-82
2021/09/07 00:34:56;;;;;;;16.38;12.20;;;;;;;14.82;63.52;100650.84;10398487;28;20073;-82
2021/09/07 00:39:58;;;;;;;13.05;10.07;;;;;;;14.81;63.46;100651.81;10397933;28;20136;-82
2021/09/07 00:45:01;;;;;;;18.83;12.25;;;;;;;14.79;63.16;100637.06;10400195;28;20077;-82
2021/09/07 00:50:04;;;;;;;16.88;12.55;;;;;;;14.64;63.31;100638.06;10406692;28;20059;-82
2021/09/07 00:55:07;;;;;;;19.58;11.75;;;;;;;14.62;63.51;100648.69;10419286;28;20065;-82
2021/09/07 01:00:11;;;;;;;13.98;11.30;;;;;;;14.56;63.30;100649.94;10398046;28;20056;-82
2021/09/07 01:05:14;;;;;;;18.88;11.52;;;;;;;14.17;64.09;100655.09;10413722;28;20049;-82
2021/09/07 01:10:15;;;;;;;16.92;11.73;;;;;;;14.17;64.27;100648.97;10396592;28;20100;-82
2021/09/07 01:15:17;;;;;;;13.70;11.57;;;;;;;14.22;64.19;100654.78;10396425;28;20084;-83
2021/09/07 01:20:19;;;;;;;14.57;11.60;;;;;;;14.24;63.89;100655.53;10398447;28;20053;-83
2021/09/07 01:25:21;;;;;;;17.65;11.50;;;;;;;14.25;63.95;100637.03;10398035;28;20614;-82
2021/09/07 01:30:22;;;;;;;13.65;11.70;;;;;;;14.22;63.72;100646.91;10403392;28;20140;-82
2021/09/07 01:35:24;;;;;;;16.10;10.95;;;;;;;14.16;63.79;100647.28;10407775;28;20084;-82
2021/09/07 01:40:26;;;;;;;17.50;11.15;;;;;;;14.12;63.59;100654.53;10404735;28;20061;-83
2021/09/07 01:45:28;;;;;;;17.20;12.27;;;;;;;13.96;64.12;100645.94;10403605;28;20077;-83
2021/09/07 01:50:30;;;;;;;22.63;13.82;;;;;;;13.89;64.45;100644.59;10399746;28;20107;-82
2021/09/07 01:55:31;;;;;;;581.97;33.08;;;;;;;13.71;64.17;100641.34;10398260;28;20158;-82
2021/09/07 02:00:33;;;;;;;16.38;11.70;;;;;;;13.60;65.08;100641.13;10398643;28;20097;-83
2021/09/07 02:05:35;;;;;;;17.52;12.63;;;;;;;13.67;64.79;100644.22;10400718;28;20061;-83
2021/09/07 02:10:37;;;;;;;18.05;13.35;;;;;;;13.72;64.56;100653.53;10400169;28;20054;-82
2021/09/07 02:15:39;;;;;;;13.50;11.02;;;;;;;13.67;64.57;100652.97;10401416;28;20392;-82
2021/09/07 02:20:41;;;;;;;13.57;10.82;;;;;;;13.70;64.25;100651.91;10400710;28;20100;-82
2021/09/07 02:25:42;;;;;;;12.57;10.88;;;;;;;13.63;64.60;100646.22;10400450;28;20093;-82
2021/09/07 02:30:44;;;;;;;15.77;12.38;;;;;;;13.65;64.16;100641.72;10416030;28;20053;-83
2021/09/07 02:35:46;;;;;;;18.05;12.10;;;;;;;13.64;64.78;100641.78;10399544;28;20108;-83
2021/09/07 02:40:48;;;;;;;15.07;12.18;;;;;;;13.61;64.14;100637.56;10401112;28;20061;-82
2021/09/07 02:45:49;;;;;;;18.33;12.65;;;;;;;13.61;63.93;100641.97;10400398;28;20148;-82
2021/09/07 02:50:51;;;;;;;17.10;11.55;;;;;;;13.57;64.14;100641.34;10399223;28;20589;-82
2021/09/07 02:55:53;;;;;;;16.55;12.43;;;;;;;13.58;64.05;100634.28;10399099;28;20116;-82
2021/09/07 03:00:55;;;;;;;14.50;11.43;;;;;;;13.54;64.09;100617.84;10399924;28;20057;-82
2021/09/07 03:05:58;;;;;;;16.92;10.95;;;;;;;13.52;64.14;100621.50;10397361;28;20041;-83
2021/09/07 03:11:00;;;;;;;14.95;12.40;;;;;;;13.54;64.16;100630.13;10411512;28;20057;-82
2021/09/07 03:16:01;;;;;;;14.15;10.95;;;;;;;13.56;64.14;100620.38;10395188;28;20100;-81
2021/09/07 03:21:03;;;;;;;38.08;16.45;;;;;;;13.32;64.38;100625.31;10400404;28;20061;-81
2021/09/07 03:26:05;;;;;;;13.95;10.25;;;;;;;13.16;65.09;100619.28;10419444;28;20103;-81
2021/09/07 03:31:07;;;;;;;12.57;10.50;;;;;;;13.42;64.79;100628.22;10395019;28;20096;-81
2021/09/07 03:36:09;;;;;;;12.98;10.80;;;;;;;13.53;64.18;100631.09;10401466;28;20049;-81
2021/09/07 03:41:12;;;;;;;14.23;10.55;;;;;;;13.59;64.10;100631.56;10404780;28;20085;-81
2021/09/07 03:46:14;;;;;;;13.60;10.48;;;;;;;13.52;64.13;100624.13;10411505;28;20091;-81
2021/09/07 03:51:15;;;;;;;13.98;10.50;;;;;;;13.48;63.78;100626.09;10421055;28;20616;-81
2021/09/07 03:56:17;;;;;;;13.88;10.90;;;;;;;13.46;63.90;100624.50;10410488;28;20076;-81
2021/09/07 04:01:19;;;;;;;11.90;10.50;;;;;;;13.34;64.21;100630.47;10409390;28;20115;-81
2021/09/07 04:06:21;;;;;;;25.63;12.52;;;;;;;13.28;64.45;100631.69;10406736;28;20061;-81
2021/09/07 04:11:23;;;;;;;14.38;11.45;;;;;;;13.29;64.43;100633.38;10402112;28;20093;-81
2021/09/07 04:16:25;;;;;;;12.85;11.00;;;;;;;13.28;64.26;100630.84;10400361;28;20170;-81
2021/09/07 04:21:26;;;;;;;14.40;11.63;;;;;;;13.25;64.24;100631.03;10401505;28;20115;-81
2021/09/07 04:26:29;;;;;;;14.40;9.70;;;;;;;13.25;64.33;100631.84;10399967;28;20053;-81
2021/09/07 04:31:31;;;;;;;12.25;10.00;;;;;;;13.26;64.36;100632.72;10398990;28;20093;-81
2021/09/07 04:36:34;;;;;;;12.45;9.52;;;;;;;13.26;64.16;100633.56;10399820;28;20379;-81
2021/09/07 04:41:35;;;;;;;11.02;8.98;;;;;;;13.27;63.87;100634.41;10398398;28;20418;-81
2021/09/07 04:46:37;;;;;;;14.40;9.23;;;;;;;13.21;64.00;100621.66;10398530;28;20107;-81
2021/09/07 04:51:39;;;;;;;12.27;9.77;;;;;;;13.14;64.03;100617.69;10397655;28;20100;-81
2021/09/07 04:56:41;;;;;;;11.48;9.50;;;;;;;13.05;64.06;100621.69;10397846;28;20532;-81
2021/09/07 05:01:42;;;;;;;16.02;9.48;;;;;;;13.01;64.31;100632.47;10398454;28;20068;-81
2021/09/07 05:06:45;;;;;;;13.00;9.77;;;;;;;12.93;64.32;100630.28;10397228;28;20145;-81
2021/09/07 05:11:47;;;;;;;12.70;10.68;;;;;;;12.96;64.46;100635.38;10397387;28;20053;-81
2021/09/07 05:16:48;;;;;;;22.70;10.05;;;;;;;13.10;64.46;100638.03;10398442;28;20072;-81
2021/09/07 05:21:50;;;;;;;11.85;9.65;;;;;;;13.21;64.13;100637.41;10397090;28;20144;-81
2021/09/07 05:26:52;;;;;;;11.48;8.60;;;;;;;13.34;63.76;100641.84;10395818;28;20128;-81
2021/09/07 05:31:54;;;;;;;8.18;6.35;;;;;;;13.44;63.49;100640.38;10396290;28;20065;-81
2021/09/07 05:36:56;;;;;;;10.30;5.95;;;;;;;13.58;63.21;100645.63;10397486;28;20053;-81
2021/09/07 05:41:58;;;;;;;9.55;6.10;;;;;;;13.68;62.93;100632.75;10396794;28;20525;-81
2021/09/07 05:47:00;;;;;;;8.48;5.85;;;;;;;13.68;62.74;100652.03;10397772;28;20097;-81
2021/09/07 05:52:02;;;;;;;17.20;7.75;;;;;;;13.53;63.07;100667.88;10404007;28;20057;-81
2021/09/07 05:57:04;;;;;;;14.23;7.93;;;;;;;13.65;63.24;100672.41;10422990;28;20123;-81
2021/09/07 06:02:06;;;;;;;11.00;6.68;;;;;;;13.99;62.83;100660.66;10402819;28;20167;-81
2021/09/07 06:07:08;;;;;;;9.95;6.85;;;;;;;14.21;62.23;100669.72;10405185;28;20083;-81
2021/09/07 06:12:09;;;;;;;10.20;7.05;;;;;;;14.53;61.92;100671.19;10406212;28;20107;-81
2021/09/07 06:17:11;;;;;;;11.15;7.07;;;;;;;14.75;61.49;100673.28;10406036;28;20080;-81
2021/09/07 06:22:13;;;;;;;11.30;6.78;;;;;;;14.97;60.88;100678.84;10421296;28;20058;-81
2021/09/07 06:27:15;;;;;;;10.30;6.97;;;;;;;15.12;60.50;100679.63;10400706;28;20053;-81
2021/09/07 06:32:17;;;;;;;10.45;6.68;;;;;;;15.21;60.57;100673.72;10398886;28;20089;-81
2021/09/07 06:37:19;;;;;;;12.35;8.98;;;;;;;15.27;60.18;100675.94;10396394;28;20915;-81
2021/09/07 06:42:21;;;;;;;11.15;9.27;;;;;;;15.01;60.60;100679.47;10394767;28;21029;-81
2021/09/07 06:47:23;;;;;;;19.40;12.25;;;;;;;15.01;60.60;100684.75;10395927;28;20091;-81
2021/09/07 06:52:24;;;;;;;10.77;7.15;;;;;;;14.97;60.90;100685.88;10396667;28;20974;-81
2021/09/07 06:57:26;;;;;;;10.35;6.88;;;;;;;15.35;60.76;100681.53;10402053;28;20049;-80
2021/09/07 07:02:28;;;;;;;9.65;6.50;;;;;;;15.29;60.88;100697.75;10397947;28;20097;-81
2021/09/07 07:07:30;;;;;;;10.57;6.50;;;;;;;15.56;60.60;100695.94;10403824;28;20503;-81
2021/09/07 07:12:32;;;;;;;10.90;6.75;;;;;;;15.92;59.93;100684.63;10406491;28;20061;-82
2021/09/07 07:17:34;;;;;;;13.73;6.55;;;;;;;16.15;59.29;100690.00;10401909;28;20100;-82
2021/09/07 07:22:36;;;;;;;12.77;7.22;;;;;;;16.34;59.35;100680.75;10402834;28;20147;-82
2021/09/07 07:27:39;;;;;;;12.35;7.70;;;;;;;16.54;58.74;100681.03;10400454;28;20076;-82
2021/09/07 07:32:42;;;;;;;12.98;7.03;;;;;;;16.60;58.77;100683.25;10404665;28;20659;-82
2021/09/07 07:37:44;;;;;;;14.60;8.57;;;;;;;16.96;58.29;100693.75;10401901;28;20057;-82
2021/09/07 07:42:46;;;;;;;12.55;9.57;;;;;;;17.60;56.80;100689.78;10401733;28;20057;-82
2021/09/07 07:47:48;;;;;;;15.25;11.55;;;;;;;17.80;56.25;100699.66;10399724;28;20061;-81
2021/09/07 07:52:50;;;;;;;18.83;12.20;;;;;;;17.80;56.32;100698.81;10399258;28;20111;-82
2021/09/07 07:57:53;;;;;;;17.13;12.70;;;;;;;18.42;54.98;100691.25;10399274;28;20136;-81
2021/09/07 08:02:55;;;;;;;18.67;12.35;;;;;;;18.77;54.18;100694.50;10400767;28;20656;-82
2021/09/07 08:08:10;;;;;;;12.95;9.48;;;;;;;19.40;53.08;100691.00;10396885;28;20057;-82
2021/09/07 08:13:12;;;;;;;15.23;8.55;;;;;;;19.51;53.10;100684.78;10397495;28;20111;-81
2021/09/07 08:18:14;;;;;;;13.45;9.15;;;;;;;20.07;51.96;100678.16;10402072;28;20045;-82
2021/09/07 08:23:16;;;;;;;12.88;8.60;;;;;;;20.44;50.92;100671.25;10405084;28;20053;-81
2021/09/07 08:28:18;;;;;;;13.65;9.40;;;;;;;20.69;50.28;100678.75;10424677;28;20045;-79
2021/09/07 08:33:20;;;;;;;17.65;9.30;;;;;;;20.64;49.91;100691.59;10408561;28;20107;-81
2021/09/07 08:38:22;;;;;;;14.60;10.18;;;;;;;20.85;49.07;100692.34;10406086;28;20061;-81
2021/09/07 08:43:26;;;;;;;15.40;9.60;;;;;;;21.28;48.36;100680.41;10399338;28;20099;-81
2021/09/07 08:48:28;;;;;;;12.93;9.38;;;;;;;21.40;48.07;100672.19;10400823;28;20085;-81
2021/09/07 08:53:31;;;;;;;19.58;11.40;;;;;;;21.43;47.38;100674.56;10397445;28;20427;-80
2021/09/07 08:58:33;;;;;;;15.63;9.55;;;;;;;21.83;47.08;100655.66;10414526;28;20093;-81
2021/09/07 09:03:35;;;;;;;13.88;9.32;;;;;;;22.20;46.16;100667.16;10398168;28;20465;-80
2021/09/07 09:08:38;;;;;;;16.52;10.18;;;;;;;21.83;46.18;100666.31;10397832;28;20053;-81
2021/09/07 09:13:44;;;;;;;20.30;10.85;;;;;;;22.36;44.71;100662.03;10395573;28;20057;-81
2021/09/07 09:18:47;;;;;;;15.25;9.85;;;;;;;22.43;45.42;100671.09;10396622;28;20495;-81
2021/09/07 09:24:27;;;;;;;14.30;8.63;;;;;;;22.57;44.05;100659.09;10398411;28;20054;-81
2021/09/07 09:29:41;;;;;;;18.00;10.67;;;;;;;22.81;43.39;100669.19;10351406;28;20108;-81
2021/09/07 09:34:43;;;;;;;17.05;10.85;;;;;;;22.39;44.89;100672.38;10398578;28;20546;-81
2021/09/07 09:39:44;;;;;;;16.52;11.13;;;;;;;22.55;44.40;100669.06;10398003;28;20089;-82
2021/09/07 09:44:46;;;;;;;17.02;9.20;;;;;;;22.90;43.52;100668.28;10397941;28;20104;-82
2021/09/07 09:49:48;;;;;;;13.43;8.95;;;;;;;23.18;43.14;100662.69;10397533;28;20111;-81
2021/09/07 09:54:52;;;;;;;19.02;9.70;;;;;;;23.32;42.57;100663.97;10399154;28;20057;-82
2021/09/07 09:59:54;;;;;;;13.82;8.43;;;;;;;23.06;42.95;100660.44;10396142;28;20147;-82
2021/09/07 10:04:59;;;;;;;17.85;9.60;;;;;;;22.96;43.09;100670.34;10400717;28;20057;-82
2021/09/07 10:10:01;;;;;;;17.52;10.25;;;;;;;23.36;41.98;100651.97;10397128;28;20064;-82
2021/09/07 10:20:51;;;;;;;16.75;10.10;;;;;;;23.74;40.80;100637.38;10390389;28;20154;-82
2021/09/07 10:25:55;;;;;;;17.77;9.50;;;;;;;24.41;40.58;100626.66;10392963;28;20477;-82
2021/09/07 10:31:23;;;;;;;16.17;9.60;;;;;;;24.23;39.72;100628.63;10396382;28;20096;-83
2021/09/07 10:36:27;;;;;;;14.73;10.23;;;;;;;24.69;39.74;100622.72;10394651;28;20067;-83
2021/09/07 10:41:29;;;;;;;18.38;9.63;;;;;;;25.47;38.07;100613.19;10396981;28;20053;-82
2021/09/07 10:46:58;;;;;;;15.27;9.95;;;;;;;25.40;36.37;100612.22;10395974;28;20107;-83
2021/09/07 10:52:25;;;;;;;13.50;9.30;;;;;;;25.14;36.52;100600.84;10415699;28;20534;-83
2021/09/07 10:57:43;;;;;;;15.60;9.30;;;;;;;24.80;35.26;100602.84;10408332;28;20107;-83
2021/09/07 11:02:46;;;;;;;11.55;8.38;;;;;;;25.11;37.51;100593.13;10401504;28;20061;-82
2021/09/07 11:07:48;;;;;;;10.27;7.65;;;;;;;25.41;37.09;100584.41;10395441;28;20539;-82
2021/09/07 11:12:51;;;;;;;17.15;8.60;;;;;;;25.37;36.21;100582.22;10395201;28;20162;-82
2021/09/07 11:17:58;;;;;;;14.05;8.02;;;;;;;25.64;35.58;100582.69;10410168;28;20681;-82
2021/09/07 11:23:07;;;;;;;16.60;9.27;;;;;;;25.60;35.37;100577.81;10395202;28;20166;-82
2021/09/07 11:28:10;;;;;;;16.08;8.40;;;;;;;25.83;35.68;100578.75;10394222;28;20133;-83
2021/09/07 11:33:12;;;;;;;12.23;7.38;;;;;;;25.98;35.68;100560.94;10394095;28;20119;-83
2021/09/07 11:38:16;;;;;;;11.90;7.20;;;;;;;25.79;35.18;100572.88;10393198;28;20115;-83
2021/09/07 11:43:43;;;;;;;16.25;8.38;;;;;;;25.81;34.76;100559.34;10395439;28;20054;-83
2021/09/07 11:48:50;;;;;;;11.45;6.53;;;;;;;25.76;35.28;100545.63;10394644;28;20057;-82
2021/09/07 11:53:58;;;;;;;11.80;7.13;;;;;;;25.75;34.83;100555.47;10399454;28;20049;-83
2021/09/07 11:59:14;;;;;;;11.95;7.30;;;;;;;26.02;34.67;100548.84;10401214;28;20054;-83
2021/09/07 12:04:18;;;;;;;11.77;7.75;;;;;;;26.01;35.11;100543.69;10401242;28;20089;-82
2021/09/07 12:09:28;;;;;;;17.42;8.13;;;;;;;26.23;33.99;100533.00;10401590;28;20057;-83
2021/09/07 12:14:43;;;;;;;13.98;7.50;;;;;;;26.29;34.21;100526.06;10402484;28;20175;-83
2021/09/07 12:19:49;;;;;;;15.00;7.25;;;;;;;26.42;34.38;100534.38;10400741;28;20151;-83
2021/09/07 12:25:12;;;;;;;15.55;8.57;;;;;;;26.07;34.37;100526.88;10401541;28;20058;-82
2021/09/07 12:30:32;;;;;;;11.70;7.22;;;;;;;26.25;34.20;100525.59;10398559;28;20085;-83
2021/09/07 12:35:37;;;;;;;;;;;;;;;25.79;33.58;100519.28;10401753;28;20053;-82
2021/09/07 12:40:46;;;;;;;17.77;7.32;;;;;;;25.90;32.38;100516.22;10416190;28;19928;-83
2021/09/07 12:45:51;;;;;;;11.60;6.25;;;;;;;25.75;33.23;100517.97;10415613;28;21021;-82
2021/09/07 12:50:53;;;;;;;11.57;6.40;;;;;;;26.29;33.58;100501.94;10398833;28;20072;-82
2021/09/07 12:55:56;;;;;;;9.50;5.72;;;;;;;26.50;32.83;100499.44;10400344;28;20093;-82
2021/09/07 13:01:00;;;;;;;8.60;5.53;;;;;;;26.35;32.96;100498.53;10398967;28;20057;-82
2021/09/07 13:06:02;;;;;;;13.70;6.15;;;;;;;26.55;33.60;100478.25;10397361;28;20088;-83
2021/09/07 13:11:04;;;;;;;11.25;6.75;;;;;;;26.35;32.67;100480.59;10398275;28;20061;-82
2021/09/07 13:16:08;;;;;;;9.80;6.78;;;;;;;26.49;33.15;100476.28;10399481;28;20065;-82
2021/09/07 13:21:13;;;;;;;9.30;5.78;;;;;;;26.43;32.51;100463.59;10401240;28;20796;-82
2021/09/07 13:26:14;;;;;;;9.23;5.75;;;;;;;26.66;32.78;100459.91;10402823;28;20057;-82
2021/09/07 13:31:16;;;;;;;9.55;5.78;;;;;;;26.53;32.00;100453.44;10418252;28;20050;-82
2021/09/07 13:36:18;;;;;;;7.75;5.43;;;;;;;26.40;32.19;100448.72;10398047;28;20148;-82
2021/09/07 13:41:20;;;;;;;8.68;5.47;;;;;;;26.52;32.54;100447.28;10398805;28;20111;-82
2021/09/07 13:46:22;;;;;;;8.57;5.05;;;;;;;26.52;32.11;100451.78;10398677;28;20069;-82
2021/09/07 13:51:24;;;;;;;7.25;4.70;;;;;;;26.30;32.47;100452.66;10396517;28;20072;-82
2021/09/07 13:56:25;;;;;;;8.18;5.68;;;;;;;26.19;32.67;100442.34;10396558;28;20073;-82
2021/09/07 14:01:27;;;;;;;7.32;4.40;;;;;;;26.38;32.59;100434.66;10396040;28;20088;-82
2021/09/07 14:06:29;;;;;;;7.38;4.70;;;;;;;26.49;32.12;100426.16;10395795;28;20061;-82
2021/09/07 14:11:32;;;;;;;6.90;4.47;;;;;;;26.48;31.94;100424.50;10396838;28;20053;-82
2021/09/07 14:16:34;;;;;;;6.97;4.60;;;;;;;26.86;32.17;100419.94;10396085;28;20065;-82
2021/09/07 14:21:36;;;;;;;7.18;4.40;;;;;;;27.04;31.02;100420.41;10397693;28;20067;-83
2021/09/07 14:26:38;;;;;;;8.38;4.35;;;;;;;27.08;31.56;100418.16;10397503;28;20466;-82
2021/09/07 14:31:40;;;;;;;6.40;4.15;;;;;;;26.90;31.04;100413.19;10395441;28;20057;-83
2021/09/07 14:36:41;;;;;;;9.20;4.13;;;;;;;26.76;31.37;100408.66;10395917;28;20067;-83
2021/09/07 14:41:43;;;;;;;7.07;4.65;;;;;;;26.56;31.40;100403.00;10395633;28;20158;-82
2021/09/07 14:46:45;;;;;;;7.38;4.20;;;;;;;26.47;32.39;100400.53;10396183;28;20156;-82
2021/09/07 14:51:47;;;;;;;7.72;4.82;;;;;;;26.53;32.54;100395.28;10395215;28;20064;-83
2021/09/07 14:56:49;;;;;;;6.15;4.10;;;;;;;26.59;32.59;100388.38;10395849;28;20084;-83
2021/09/07 15:01:51;;;;;;;7.15;4.40;;;;;;;26.59;32.04;100391.88;10396217;28;20143;-83
2021/09/07 15:06:54;;;;;;;5.88;3.70;;;;;;;26.52;32.17;100388.25;10394664;28;20092;-83
2021/09/07 15:11:56;;;;;;;6.57;4.10;;;;;;;26.41;32.73;100391.38;10394044;28;20504;-82
2021/09/07 15:16:57;;;;;;;7.13;4.45;;;;;;;26.24;32.91;100389.84;10394923;28;21059;-83
2021/09/07 15:21:59;;;;;;;7.25;4.25;;;;;;;26.05;33.41;100384.16;10394950;28;20097;-82
2021/09/07 15:27:03;;;;;;;9.55;4.18;;;;;;;26.05;33.85;100376.13;10395875;28;20123;-82
2021/09/07 15:32:05;;;;;;;5.70;3.92;;;;;;;26.04;33.92;100372.59;10402899;28;20054;-83
2021/09/07 15:37:07;;;;;;;6.60;4.30;;;;;;;25.89;33.73;100379.75;10403557;28;20170;-83
2021/09/07 15:42:09;;;;;;;6.90;3.97;;;;;;;25.64;34.12;100365.69;10402806;28;20060;-82
2021/09/07 15:47:11;;;;;;;8.63;4.40;;;;;;;25.60;34.19;100375.09;10403741;28;20946;-82
2021/09/07 15:52:13;;;;;;;8.38;4.63;;;;;;;25.61;34.30;100365.22;10403214;28;20076;-83
2021/09/07 15:57:15;;;;;;;7.30;4.28;;;;;;;25.34;34.39;100366.53;10408757;28;20160;-82
2021/09/07 16:02:19;;;;;;;6.00;4.07;;;;;;;25.14;34.81;100367.97;10421721;28;20046;-82
2021/09/07 16:07:21;;;;;;;7.35;4.88;;;;;;;25.10;35.05;100369.31;10409508;28;20057;-82
2021/09/07 16:12:23;;;;;;;6.97;4.65;;;;;;;25.14;35.61;100365.28;10400103;28;20515;-82
2021/09/07 16:17:25;;;;;;;9.13;4.43;;;;;;;25.19;35.16;100356.69;10402373;28;20065;-83
2021/09/07 16:22:26;;;;;;;8.27;4.70;;;;;;;25.04;35.05;100357.44;10401483;28;20081;-83
2021/09/07 16:27:28;;;;;;;9.93;4.60;;;;;;;24.90;35.52;100350.16;10400401;28;20097;-83
2021/09/07 16:32:30;;;;;;;11.32;5.28;;;;;;;24.95;36.02;100354.97;10400193;28;20132;-82
2021/09/07 16:37:33;;;;;;;8.90;5.47;;;;;;;24.86;36.20;100351.50;10399138;28;20066;-82
2021/09/07 16:42:35;;;;;;;11.05;5.90;;;;;;;24.90;36.69;100354.66;10399952;28;20096;-82
2021/09/07 16:47:37;;;;;;;13.50;7.22;;;;;;;24.82;37.14;100344.00;10401023;28;20175;-82
2021/09/07 16:52:46;;;;;;;9.25;6.25;;;;;;;24.68;37.70;100342.00;10400920;28;20851;-82
2021/09/07 16:57:48;;;;;;;10.30;6.85;;;;;;;24.49;37.58;100351.25;10400484;28;20084;-82
2021/09/07 17:02:50;;;;;;;12.55;7.13;;;;;;;24.26;37.74;100340.44;10401000;28;20065;-83
2021/09/07 17:07:56;;;;;;;12.85;6.65;;;;;;;24.12;38.37;100333.09;10399396;28;20143;-82
2021/09/07 17:12:58;;;;;;;18.80;7.32;;;;;;;23.95;38.53;100338.59;10400255;28;20120;-82
2021/09/07 17:18:00;;;;;;;15.68;8.73;;;;;;;23.68;38.69;100331.75;10402388;28;20561;-82
2021/09/07 17:23:02;;;;;;;16.38;9.00;;;;;;;23.49;38.96;100335.56;10404311;28;20084;-82
2021/09/07 17:28:08;;;;;;;14.85;9.77;;;;;;;23.35;39.61;100327.34;10411441;28;20154;-82
2021/09/07 17:43:41;;;;;;;14.02;6.90;;;;;;;22.79;41.14;100322.66;10393479;28;20060;-82
2021/09/07 17:48:42;;;;;;;12.77;6.07;;;;;;;22.64;41.62;100325.03;10397064;28;20057;-82
2021/09/07 17:53:45;;;;;;;9.50;7.35;;;;;;;22.54;42.37;100327.00;10398147;28;20068;-82
2021/09/07 17:58:47;;;;;;;11.18;7.07;;;;;;;22.27;43.03;100331.66;10398340;28;20049;-82
2021/09/07 18:03:49;;;;;;;12.77;9.40;;;;;;;21.97;44.19;100332.91;10396709;28;20139;-82
2021/09/07 18:08:54;;;;;;;15.82;10.73;;;;;;;21.69;45.29;100339.31;10393599;28;20119;-82
2021/09/07 18:13:57;;;;;;;11.55;8.13;;;;;;;21.38;45.84;100356.63;10397031;28;20064;-82
2021/09/07 18:19:01;;;;;;;11.65;7.72;;;;;;;21.24;46.48;100355.31;10395394;28;20064;-82
2021/09/07 18:24:03;;;;;;;13.95;7.13;;;;;;;21.13;46.70;100363.47;10396067;28;20061;-82
2021/09/07 18:29:06;;;;;;;10.80;7.05;;;;;;;20.98;47.25;100367.63;10396841;28;20053;-82
2021/09/07 18:34:08;;;;;;;14.05;8.98;;;;;;;20.85;47.84;100367.97;10395772;28;20081;-82
2021/09/07 18:39:11;;;;;;;13.43;10.77;;;;;;;20.68;48.43;100373.22;10395403;28;20060;-82
2021/09/07 18:44:13;;;;;;;16.92;9.02;;;;;;;20.53;49.24;100383.44;10397252;28;20168;-82
2021/09/07 18:49:16;;;;;;;17.27;8.50;;;;;;;20.47;49.67;100385.81;10394024;28;20053;-82
2021/09/07 18:54:17;;;;;;;14.20;8.98;;;;;;;20.34;50.91;100380.00;10394037;28;20061;-82
2021/09/07 18:59:19;;;;;;;14.60;10.23;;;;;;;20.09;51.04;100384.09;10394106;28;20128;-82
2021/09/07 19:04:22;;;;;;;13.30;10.20;;;;;;;19.72;52.03;100399.00;10393313;28;20053;-82
2021/09/07 19:09:24;;;;;;;13.20;9.32;;;;;;;19.73;51.58;100392.69;10391371;28;20080;-82
2021/09/07 19:14:26;;;;;;;12.75;8.80;;;;;;;19.62;52.03;100399.00;10393907;28;20160;-81
2021/09/07 19:19:28;;;;;;;9.90;7.85;;;;;;;19.54;51.98;100398.84;10396266;28;20149;-82
2021/09/07 19:24:29;;;;;;;12.52;8.40;;;;;;;19.43;52.44;100399.81;10396476;28;20148;-82
2021/09/07 19:29:31;;;;;;;10.70;8.18;;;;;;;19.35;52.75;100399.66;10393928;28;20085;-82
2021/09/07 19:34:33;;;;;;;13.18;8.55;;;;;;;19.28;52.65;100400.31;10394829;28;20144;-82
2021/09/07 19:39:35;;;;;;;12.20;8.65;;;;;;;19.09;53.24;100398.47;10390981;28;20147;-82
2021/09/07 19:44:38;;;;;;;17.92;9.95;;;;;;;18.88;53.87;100402.94;10396090;28;20061;-81
2021/09/07 19:49:40;;;;;;;17.63;10.43;;;;;;;18.61;54.44;100400.00;10394988;28;20076;-81
2021/09/07 19:54:41;;;;;;;15.88;10.30;;;;;;;18.48;54.96;100399.38;10398397;28;20140;-82
2021/09/07 19:59:43;;;;;;;14.52;8.90;;;;;;;18.49;55.10;100393.09;10402161;28;20076;-85
2021/09/07 20:04:45;;;;;;;12.82;9.35;;;;;;;18.35;55.41;100396.09;10423200;28;20065;-85
2021/09/07 20:09:50;;;;;;;13.40;8.23;;;;;;;18.31;55.50;100387.56;10397133;28;20049;-84
2021/09/07 20:14:54;;;;;;;19.48;8.23;;;;;;;18.17;55.73;100389.66;10400213;28;20441;-85
2021/09/07 20:19:55;;;;;;;14.73;8.63;;;;;;;17.99;56.32;100384.09;10403597;28;20095;-85
2021/09/07 20:24:58;;;;;;;14.18;7.95;;;;;;;18.00;56.56;100383.13;10404592;28;20576;-85
2021/09/07 20:30:08;;;;;;;14.00;8.73;;;;;;;17.99;56.89;100383.25;10402306;28;20061;-84
2021/09/07 20:41:34;;;;;;;;;;;;;;;17.19;58.27;100388.03;10402275;28;20112;-85
2021/09/07 20:46:36;;;;;;;12.05;8.15;;;;;;;17.47;57.45;100386.69;10409603;28;20359;-85
2021/09/07 20:51:38;;;;;;;14.13;8.60;;;;;;;17.49;57.69;100387.41;10393018;28;20053;-85
2021/09/07 20:56:46;;;;;;;14.13;8.27;;;;;;;17.52;57.68;100393.31;10400847;28;20077;-85
2021/09/07 21:01:48;;;;;;;13.18;8.20;;;;;;;17.47;57.61;100392.81;10398695;28;20084;-85
2021/09/07 21:06:50;;;;;;;13.82;9.10;;;;;;;17.22;57.85;100398.34;10415007;28;20053;-85
2021/09/07 21:11:52;;;;;;;17.58;9.50;;;;;;;17.04;58.13;100397.19;10403305;28;20061;-81
2021/09/07 21:16:57;;;;;;;13.20;9.25;;;;;;;16.99;58.35;100394.94;10402507;28;20068;-81
2021/09/07 21:21:59;;;;;;;13.32;8.77;;;;;;;16.94;58.71;100397.06;10401402;28;20100;-81
2021/09/07 21:27:15;;;;;;;10.88;8.50;;;;;;;16.94;59.08;100390.94;10397427;28;20111;-81
2021/09/07 21:32:23;;;;;;;13.13;8.73;;;;;;;16.80;59.18;100391.19;10384605;28;20061;-81
2021/09/07 21:37:26;;;;;;;13.98;9.07;;;;;;;16.69;59.32;100392.03;10399558;28;20053;-81
2021/09/07 21:42:40;;;;;;;16.38;8.90;;;;;;;16.62;59.74;100395.25;10396489;28;20057;-81
2021/09/07 21:47:42;;;;;;;11.93;9.45;;;;;;;16.54;59.43;100395.00;10398601;28;20111;-81
2021/09/07 21:52:44;;;;;;;13.95;10.93;;;;;;;16.24;60.05;100387.63;10399439;28;20084;-81
